Time;durP1;ratioP1;P1;durP2;ratioP2;P2;SDS_P1;SDS_P2;PMS_P1;PMS_P2;Temp;Humidity;BMP_temperature;BMP_pressure;BME280_temperature;BME280_humidity;BME280_pressure;Samples;Min_cycle;Max_cycle;Signal;HPM_P1;HPM_P2
2022/12/13 00:01:37;;;;;;;153.20;61.20;;;;;;;;;;5031400;28;20030;-77
2022/12/13 00:04:05;;;;;;;146.05;59.20;;;;;;;;;;5031970;28;20044;-81
2022/12/13 00:06:31;;;;;;;147.80;60.05;;;;;;;;;;5039549;28;20030;-79
2022/12/13 00:08:57;;;;;;;145.90;59.40;;;;;;;;;;5036775;28;20053;-80
2022/12/13 00:11:23;;;;;;;140.88;58.45;;;;;;;;;;5035449;28;20061;-80
2022/12/13 00:13:50;;;;;;;149.23;56.90;;;;;;;;;;5037907;28;20041;-79
2022/12/13 00:16:17;;;;;;;149.75;57.83;;;;;;;;;;5032170;28;20045;-79
2022/12/13 00:18:46;;;;;;;137.68;57.63;;;;;;;;;;5027765;28;20045;-75
2022/12/13 00:21:14;;;;;;;149.57;58.75;;;;;;;;;;5027343;28;20034;-77
2022/12/13 00:23:40;;;;;;;143.35;55.55;;;;;;;;;;5020047;28;20030;-80
2022/12/13 00:26:12;;;;;;;136.68;56.80;;;;;;;;;;5020348;28;20088;-77
2022/12/13 00:28:38;;;;;;;141.18;56.05;;;;;;;;;;5019889;28;20057;-78
2022/12/13 00:31:04;;;;;;;136.75;57.13;;;;;;;;;;5019810;28;20065;-80
2022/12/13 00:33:30;;;;;;;144.52;56.67;;;;;;;;;;5019999;28;20101;-77
2022/12/13 00:35:56;;;;;;;135.43;54.85;;;;;;;;;;5016326;28;20443;-79
2022/12/13 00:38:23;;;;;;;140.95;56.85;;;;;;;;;;5019939;28;20026;-79
2022/12/13 00:40:50;;;;;;;146.75;57.55;;;;;;;;;;5016208;28;20364;-78
2022/12/13 00:43:16;;;;;;;148.13;57.25;;;;;;;;;;5017346;28;20105;-79
2022/12/13 00:45:42;;;;;;;136.25;55.97;;;;;;;;;;5015389;28;20033;-76
2022/12/13 00:48:08;;;;;;;149.55;56.47;;;;;;;;;;5014797;28;20026;-75
2022/12/13 00:50:34;;;;;;;138.52;56.17;;;;;;;;;;5014869;28;20032;-78
2022/12/13 00:53:00;;;;;;;139.40;56.85;;;;;;;;;;5015531;28;20022;-78
2022/12/13 00:55:27;;;;;;;145.27;56.72;;;;;;;;;;5015139;28;20186;-77
2022/12/13 00:57:53;;;;;;;133.35;55.65;;;;;;;;;;5015108;28;20095;-81
2022/12/13 01:00:19;;;;;;;137.73;56.20;;;;;;;;;;5013999;28;20475;-80
2022/12/13 01:02:45;;;;;;;141.68;55.47;;;;;;;;;;5016501;28;20030;-77
2022/12/13 01:05:11;;;;;;;150.20;56.92;;;;;;;;;;5016031;28;20030;-77
2022/12/13 01:07:38;;;;;;;142.57;56.50;;;;;;;;;;5015046;28;20038;-79
2022/12/13 01:10:04;;;;;;;150.25;57.90;;;;;;;;;;5021265;28;20034;-78
2022/12/13 01:12:30;;;;;;;145.00;56.08;;;;;;;;;;5032545;28;20096;-79
2022/12/13 01:14:56;;;;;;;133.82;55.80;;;;;;;;;;5035525;28;20026;-79
2022/12/13 01:17:23;;;;;;;133.45;54.10;;;;;;;;;;5034858;28;20526;-82
2022/12/13 01:19:49;;;;;;;139.38;53.90;;;;;;;;;;5038098;28;20094;-79
2022/12/13 01:22:15;;;;;;;145.85;57.65;;;;;;;;;;5031095;28;20364;-78
2022/12/13 01:24:41;;;;;;;145.75;56.67;;;;;;;;;;5015053;28;20025;-78
2022/12/13 01:27:06;;;;;;;126.03;54.15;;;;;;;;;;5013584;28;20026;-77
2022/12/13 01:29:33;;;;;;;134.15;55.83;;;;;;;;;;5014441;28;20030;-78
2022/12/13 01:31:59;;;;;;;141.65;55.60;;;;;;;;;;5014895;28;20119;-77
2022/12/13 01:34:26;;;;;;;140.25;54.42;;;;;;;;;;5013974;28;20030;-78
2022/12/13 01:36:52;;;;;;;138.77;54.00;;;;;;;;;;5014068;28;20029;-77
2022/12/13 01:39:19;;;;;;;137.15;54.03;;;;;;;;;;5014294;28;20030;-78
2022/12/13 01:41:46;;;;;;;136.45;53.95;;;;;;;;;;5014887;28;20033;-78
2022/12/13 01:44:30;;;;;;;131.80;52.70;;;;;;;;;;5013347;28;20045;-79
2022/12/13 01:46:56;;;;;;;;;;;;;;;;;;5015039;28;20086;-79
2022/12/13 01:49:22;;;;;;;126.90;51.60;;;;;;;;;;5014493;28;19945;-79
2022/12/13 01:51:51;;;;;;;128.65;53.88;;;;;;;;;;5014156;28;20025;-78
2022/12/13 01:54:21;;;;;;;146.85;56.47;;;;;;;;;;5014518;28;20022;-75
2022/12/13 01:56:48;;;;;;;136.57;55.58;;;;;;;;;;5014263;28;20018;-77
2022/12/13 01:59:15;;;;;;;143.15;55.72;;;;;;;;;;5014662;28;20140;-77
2022/12/13 02:01:42;;;;;;;136.70;54.78;;;;;;;;;;5015600;28;20473;-76
2022/12/13 02:04:08;;;;;;;141.30;53.58;;;;;;;;;;5016485;28;20471;-77
2022/12/13 02:06:35;;;;;;;136.65;52.72;;;;;;;;;;5014119;28;20030;-77
2022/12/13 02:09:02;;;;;;;136.90;53.00;;;;;;;;;;5015260;28;20040;-76
2022/12/13 02:11:28;;;;;;;141.15;55.40;;;;;;;;;;5012781;28;20505;-76
2022/12/13 02:13:54;;;;;;;138.82;55.10;;;;;;;;;;5014352;28;20053;-78
2022/12/13 02:16:20;;;;;;;138.05;53.70;;;;;;;;;;5012657;28;20364;-78
2022/12/13 02:18:46;;;;;;;132.73;54.35;;;;;;;;;;5013983;28;20077;-77
2022/12/13 02:21:18;;;;;;;126.00;51.85;;;;;;;;;;5013758;28;20568;-78
2022/12/13 02:23:47;;;;;;;135.20;52.53;;;;;;;;;;5013319;28;20036;-76
2022/12/13 02:26:13;;;;;;;135.75;52.85;;;;;;;;;;5014776;28;20030;-77
2022/12/13 02:28:58;;;;;;;132.57;52.75;;;;;;;;;;5019188;28;20060;-78
2022/12/13 02:31:27;;;;;;;127.72;51.92;;;;;;;;;;5020191;28;20380;-76
2022/12/13 02:33:57;;;;;;;142.93;55.95;;;;;;;;;;5021680;28;20509;-76
2022/12/13 02:36:31;;;;;;;129.77;52.17;;;;;;;;;;5017893;28;20038;-79
2022/12/13 02:38:59;;;;;;;126.03;51.85;;;;;;;;;;5021241;28;20037;-79
2022/12/13 02:41:37;;;;;;;127.82;52.58;;;;;;;;;;5036210;28;20017;-78
2022/12/13 02:44:12;;;;;;;134.43;52.40;;;;;;;;;;5033621;28;20026;-77
2022/12/13 02:46:40;;;;;;;133.75;51.90;;;;;;;;;;5019000;28;20040;-78
2022/12/13 02:49:08;;;;;;;133.77;53.00;;;;;;;;;;5013456;28;20030;-79
2022/12/13 02:51:35;;;;;;;127.72;52.45;;;;;;;;;;5013331;28;20542;-76
2022/12/13 02:54:00;;;;;;;127.40;51.38;;;;;;;;;;5016001;28;20030;-75
2022/12/13 02:56:27;;;;;;;137.27;54.47;;;;;;;;;;5014334;28;20175;-77
2022/12/13 02:58:55;;;;;;;132.48;51.65;;;;;;;;;;5014194;28;20437;-77
2022/12/13 03:01:27;;;;;;;137.13;52.45;;;;;;;;;;5012834;28;20026;-77
2022/12/13 03:03:53;;;;;;;130.00;52.15;;;;;;;;;;5016440;28;20026;-77
2022/12/13 03:06:37;;;;;;;134.90;53.22;;;;;;;;;;5015121;28;20037;-76
2022/12/13 03:09:24;;;;;;;136.30;53.60;;;;;;;;;;5013268;28;20438;-78
2022/12/13 03:14:48;;;;;;;133.45;52.35;;;;;;;;;;5013398;28;20045;-78
2022/12/13 03:17:17;;;;;;;135.65;53.08;;;;;;;;;;5013796;28;20360;-78
2022/12/13 03:19:43;;;;;;;132.75;52.08;;;;;;;;;;5012437;28;20022;-78
2022/12/13 03:22:09;;;;;;;132.90;52.58;;;;;;;;;;5013136;28;20033;-78
2022/12/13 03:24:35;;;;;;;131.85;52.10;;;;;;;;;;5010352;28;20029;-78
2022/12/13 03:27:01;;;;;;;131.13;51.53;;;;;;;;;;5012276;28;20030;-78
2022/12/13 03:29:27;;;;;;;124.85;49.83;;;;;;;;;;5013705;28;20033;-77
2022/12/13 03:31:53;;;;;;;124.03;49.55;;;;;;;;;;5030752;28;20138;-77
2022/12/13 03:34:19;;;;;;;124.38;50.38;;;;;;;;;;5030143;28;20050;-77
2022/12/13 03:36:45;;;;;;;127.55;51.80;;;;;;;;;;5031012;28;20026;-78
2022/12/13 03:39:11;;;;;;;125.38;51.33;;;;;;;;;;5030603;28;20029;-78
2022/12/13 03:41:37;;;;;;;122.32;49.38;;;;;;;;;;5029636;28;20042;-77
2022/12/13 03:44:04;;;;;;;122.97;50.50;;;;;;;;;;5012865;28;20243;-77
2022/12/13 03:46:30;;;;;;;131.18;51.15;;;;;;;;;;5011797;28;20029;-78
2022/12/13 03:48:56;;;;;;;130.55;51.30;;;;;;;;;;5012343;28;20026;-77
2022/12/13 03:51:22;;;;;;;128.52;51.20;;;;;;;;;;5013311;28;20081;-77
2022/12/13 03:53:48;;;;;;;123.00;50.63;;;;;;;;;;5012839;28;20496;-76
2022/12/13 03:56:14;;;;;;;131.32;52.88;;;;;;;;;;5010297;28;20026;-77
2022/12/13 03:58:43;;;;;;;131.35;51.70;;;;;;;;;;5015362;28;20364;-77
2022/12/13 04:01:10;;;;;;;125.97;50.40;;;;;;;;;;5016068;28;20256;-78
2022/12/13 04:03:37;;;;;;;134.50;52.58;;;;;;;;;;5016484;28;20475;-77
2022/12/13 04:06:04;;;;;;;123.20;50.28;;;;;;;;;;5016202;28;20505;-77
2022/12/13 04:08:30;;;;;;;130.82;51.33;;;;;;;;;;5016063;28;20026;-76
2022/12/13 04:10:55;;;;;;;133.40;52.72;;;;;;;;;;5015476;28;20034;-77
2022/12/13 04:13:33;;;;;;;127.90;50.83;;;;;;;;;;5016152;28;20026;-77
2022/12/13 04:16:00;;;;;;;131.60;52.70;;;;;;;;;;5015747;28;20028;-76
2022/12/13 04:18:26;;;;;;;141.00;54.70;;;;;;;;;;5015821;28;20069;-76
2022/12/13 04:20:52;;;;;;;143.82;55.85;;;;;;;;;;5020198;28;20041;-77
2022/12/13 04:23:18;;;;;;;123.78;50.78;;;;;;;;;;5019963;28;20447;-76
2022/12/13 04:25:44;;;;;;;145.15;55.67;;;;;;;;;;5021591;28;20376;-77
2022/12/13 04:28:10;;;;;;;132.15;51.88;;;;;;;;;;5024535;28;20052;-76
2022/12/13 04:30:37;;;;;;;131.50;50.47;;;;;;;;;;5031583;28;20026;-77
2022/12/13 04:33:03;;;;;;;132.63;52.03;;;;;;;;;;5032627;28;20025;-78
2022/12/13 04:35:29;;;;;;;141.45;54.30;;;;;;;;;;5016595;28;20100;-78
2022/12/13 04:37:56;;;;;;;127.68;50.78;;;;;;;;;;5020490;28;20029;-77
2022/12/13 04:40:22;;;;;;;133.15;50.03;;;;;;;;;;5038981;28;20041;-78
2022/12/13 04:42:48;;;;;;;135.77;52.22;;;;;;;;;;5039326;28;20019;-78
2022/12/13 04:45:15;;;;;;;136.65;53.70;;;;;;;;;;5036536;28;20034;-79
2022/12/13 04:47:41;;;;;;;140.95;54.13;;;;;;;;;;5017075;28;20057;-77
2022/12/13 04:50:07;;;;;;;135.52;51.28;;;;;;;;;;5018134;28;20041;-78
2022/12/13 04:52:34;;;;;;;139.82;53.70;;;;;;;;;;5016324;28;20033;-77
2022/12/13 04:55:00;;;;;;;129.90;50.75;;;;;;;;;;5017740;28;20467;-76
2022/12/13 04:57:25;;;;;;;129.98;52.42;;;;;;;;;;5019039;28;20026;-77
2022/12/13 04:59:51;;;;;;;126.88;52.33;;;;;;;;;;5017296;28;20446;-76
2022/12/13 05:02:17;;;;;;;132.20;50.13;;;;;;;;;;5018290;28;20434;-76
2022/12/13 05:04:44;;;;;;;136.38;52.25;;;;;;;;;;5028736;28;20029;-76
2022/12/13 05:07:10;;;;;;;130.63;49.83;;;;;;;;;;5022924;28;20128;-77
2022/12/13 05:09:36;;;;;;;125.13;51.83;;;;;;;;;;5018728;28;20025;-75
2022/12/13 05:12:02;;;;;;;134.02;52.17;;;;;;;;;;5017157;28;20553;-75
2022/12/13 05:14:31;;;;;;;123.57;50.60;;;;;;;;;;5021445;28;20050;-77
2022/12/13 05:16:57;;;;;;;129.80;50.47;;;;;;;;;;5023109;28;20033;-77
2022/12/13 05:19:23;;;;;;;134.40;50.88;;;;;;;;;;5024230;28;20044;-77
2022/12/13 05:21:49;;;;;;;132.15;49.58;;;;;;;;;;5022883;28;20065;-76
2022/12/13 05:24:16;;;;;;;124.00;49.83;;;;;;;;;;5017921;28;20475;-77
2022/12/13 05:26:42;;;;;;;127.88;50.35;;;;;;;;;;5016012;28;20117;-79
2022/12/13 05:29:08;;;;;;;124.75;49.58;;;;;;;;;;5018551;28;20034;-77
2022/12/13 05:31:34;;;;;;;129.45;52.92;;;;;;;;;;5021002;28;20026;-76
2022/12/13 05:34:00;;;;;;;124.88;49.47;;;;;;;;;;5017862;28;20045;-77
2022/12/13 05:36:26;;;;;;;131.05;50.55;;;;;;;;;;5016596;28;20468;-75
2022/12/13 05:38:52;;;;;;;120.70;49.20;;;;;;;;;;5013850;28;20029;-76
2022/12/13 05:41:20;;;;;;;122.32;48.47;;;;;;;;;;5021275;28;20030;-77
2022/12/13 05:43:46;;;;;;;125.15;49.40;;;;;;;;;;5015458;28;20510;-80
2022/12/13 05:46:13;;;;;;;118.68;49.22;;;;;;;;;;5015984;28;20119;-78
2022/12/13 05:48:39;;;;;;;123.28;49.55;;;;;;;;;;5019603;28;20504;-77
2022/12/13 05:51:05;;;;;;;122.68;48.22;;;;;;;;;;5028348;28;20057;-78
2022/12/13 05:53:31;;;;;;;120.88;48.58;;;;;;;;;;5035468;28;20026;-78
2022/12/13 05:56:00;;;;;;;114.65;46.53;;;;;;;;;;5033271;28;20030;-79
2022/12/13 05:58:27;;;;;;;125.32;48.45;;;;;;;;;;5035348;28;20109;-77
2022/12/13 06:00:53;;;;;;;120.35;48.80;;;;;;;;;;5035251;28;20021;-77
2022/12/13 06:03:19;;;;;;;119.68;47.38;;;;;;;;;;5022991;28;20109;-78
2022/12/13 06:05:45;;;;;;;117.25;47.30;;;;;;;;;;5018718;28;20080;-78
2022/12/13 06:08:11;;;;;;;114.15;47.28;;;;;;;;;;5019136;28;20035;-78
2022/12/13 06:10:37;;;;;;;127.25;47.55;;;;;;;;;;5019180;28;20037;-77
2022/12/13 06:13:04;;;;;;;123.35;49.50;;;;;;;;;;5018624;28;20033;-78
2022/12/13 06:15:30;;;;;;;119.93;48.35;;;;;;;;;;5014284;28;20025;-77
2022/12/13 06:17:58;;;;;;;120.30;47.85;;;;;;;;;;5017727;28;20053;-78
2022/12/13 06:20:24;;;;;;;116.93;47.40;;;;;;;;;;5041402;23;20065;-74
2022/12/13 06:22:52;;;;;;;119.35;49.47;;;;;;;;;;5013784;28;20380;-74
2022/12/13 06:25:17;;;;;;;137.70;54.65;;;;;;;;;;5014282;28;20029;-75
2022/12/13 06:27:43;;;;;;;124.32;50.65;;;;;;;;;;5011624;28;20054;-75
2022/12/13 06:30:10;;;;;;;123.90;50.42;;;;;;;;;;5008832;28;20037;-76
2022/12/13 06:32:36;;;;;;;162.73;63.00;;;;;;;;;;5017804;28;20462;-76
2022/12/13 06:35:02;;;;;;;140.43;55.80;;;;;;;;;;5013730;28;20025;-74
2022/12/13 06:37:27;;;;;;;124.70;48.75;;;;;;;;;;5012297;28;20036;-74
2022/12/13 06:39:53;;;;;;;117.63;47.90;;;;;;;;;;5015032;28;20149;-73
2022/12/13 06:42:19;;;;;;;112.50;45.35;;;;;;;;;;5014309;28;20033;-74
2022/12/13 06:44:45;;;;;;;115.20;46.45;;;;;;;;;;5016938;28;20038;-73
2022/12/13 06:47:11;;;;;;;113.10;46.42;;;;;;;;;;5020362;28;20025;-77
2022/12/13 06:49:37;;;;;;;119.78;45.78;;;;;;;;;;5026010;28;20021;-75
2022/12/13 06:52:04;;;;;;;123.57;48.40;;;;;;;;;;5031746;28;20056;-77
2022/12/13 06:54:30;;;;;;;117.63;46.63;;;;;;;;;;5034401;28;20036;-75
2022/12/13 06:56:56;;;;;;;114.75;46.10;;;;;;;;;;5035468;28;20014;-74
2022/12/13 06:59:22;;;;;;;120.50;48.50;;;;;;;;;;5033046;28;20026;-74
2022/12/13 07:01:47;;;;;;;121.78;48.45;;;;;;;;;;5027709;28;20025;-73
2022/12/13 07:04:13;;;;;;;124.78;47.70;;;;;;;;;;5028374;28;20495;-73
2022/12/13 07:06:39;;;;;;;111.63;46.13;;;;;;;;;;5009947;28;20034;-73
2022/12/13 07:09:05;;;;;;;135.10;55.05;;;;;;;;;;5022107;28;20018;-75
2022/12/13 07:11:32;;;;;;;121.47;49.45;;;;;;;;;;5013109;28;20034;-74
2022/12/13 07:13:58;;;;;;;113.82;48.58;;;;;;;;;;5012931;28;20033;-74
2022/12/13 07:16:24;;;;;;;119.15;49.28;;;;;;;;;;5013177;28;20025;-77
2022/12/13 07:18:57;;;;;;;111.63;46.05;;;;;;;;;;5019989;28;20033;-76
2022/12/13 07:21:23;;;;;;;122.35;47.22;;;;;;;;;;5019321;28;20076;-76
2022/12/13 07:23:49;;;;;;;116.85;45.88;;;;;;;;;;5015633;28;20560;-77
2022/12/13 07:26:15;;;;;;;118.05;48.55;;;;;;;;;;5012787;28;20035;-75
2022/12/13 07:28:41;;;;;;;114.53;47.80;;;;;;;;;;5012839;28;20030;-75
2022/12/13 07:31:08;;;;;;;115.00;46.15;;;;;;;;;;5014248;28;20088;-75
2022/12/13 07:33:34;;;;;;;116.85;45.70;;;;;;;;;;5017511;28;20049;-75
2022/12/13 07:36:05;;;;;;;116.75;47.67;;;;;;;;;;5016381;28;20030;-75
2022/12/13 07:38:32;;;;;;;122.75;46.78;;;;;;;;;;5015810;28;20018;-75
2022/12/13 07:40:58;;;;;;;106.28;44.47;;;;;;;;;;5017916;28;20034;-74
2022/12/13 07:43:24;;;;;;;117.05;48.30;;;;;;;;;;5016737;28;20064;-74
2022/12/13 07:45:51;;;;;;;112.00;46.33;;;;;;;;;;5014301;28;20065;-74
2022/12/13 07:48:17;;;;;;;105.13;45.05;;;;;;;;;;5015473;28;20088;-76
2022/12/13 07:50:43;;;;;;;113.07;44.60;;;;;;;;;;5016568;28;20471;-73
2022/12/13 07:53:09;;;;;;;110.70;45.45;;;;;;;;;;5015448;28;20507;-74
2022/12/13 07:55:35;;;;;;;116.13;44.30;;;;;;;;;;5015331;28;20026;-74
2022/12/13 07:58:06;;;;;;;111.35;42.35;;;;;;;;;;5016395;28;20391;-74
2022/12/13 08:00:32;;;;;;;105.07;41.88;;;;;;;;;;5015577;28;20090;-73
2022/12/13 08:02:58;;;;;;;110.63;43.88;;;;;;;;;;5016425;28;20029;-73
2022/12/13 08:05:24;;;;;;;110.30;46.22;;;;;;;;;;5015146;28;20030;-72
2022/12/13 08:07:50;;;;;;;106.28;44.53;;;;;;;;;;5015677;28;20045;-73
2022/12/13 08:10:16;;;;;;;112.60;46.03;;;;;;;;;;5015414;28;20026;-72
2022/12/13 08:12:42;;;;;;;121.13;47.78;;;;;;;;;;5016188;28;20037;-74
2022/12/13 08:15:08;;;;;;;112.90;46.30;;;;;;;;;;5015294;28;20026;-74
2022/12/13 08:17:34;;;;;;;108.05;44.45;;;;;;;;;;5015233;28;20438;-73
2022/12/13 08:20:00;;;;;;;112.28;44.92;;;;;;;;;;5019443;28;20034;-74
2022/12/13 08:22:26;;;;;;;107.68;42.38;;;;;;;;;;5023242;28;20029;-74
2022/12/13 08:24:52;;;;;;;103.25;41.45;;;;;;;;;;5021641;28;20032;-74
2022/12/13 08:27:18;;;;;;;103.75;42.28;;;;;;;;;;5015522;28;20026;-75
2022/12/13 08:29:44;;;;;;;103.40;41.70;;;;;;;;;;5017243;28;20108;-75
2022/12/13 08:32:11;;;;;;;98.95;40.83;;;;;;;;;;5018662;28;20045;-73
2022/12/13 08:34:37;;;;;;;102.15;39.78;;;;;;;;;;5016921;28;20022;-74
2022/12/13 08:37:03;;;;;;;92.32;39.65;;;;;;;;;;5014405;28;20060;-74
2022/12/13 08:39:30;;;;;;;104.50;39.85;;;;;;;;;;5015079;28;20026;-75
2022/12/13 08:41:55;;;;;;;101.72;41.47;;;;;;;;;;5017010;28;20046;-74
2022/12/13 08:44:21;;;;;;;102.97;41.50;;;;;;;;;;5015420;28;20033;-74
2022/12/13 08:46:47;;;;;;;92.60;39.47;;;;;;;;;;5014946;28;20034;-75
2022/12/13 08:49:13;;;;;;;91.00;37.33;;;;;;;;;;5017299;28;20026;-73
2022/12/13 08:51:39;;;;;;;103.82;39.67;;;;;;;;;;5016323;28;20033;-73
2022/12/13 08:54:05;;;;;;;96.88;39.42;;;;;;;;;;5021712;28;20030;-74
2022/12/13 08:56:31;;;;;;;92.22;37.60;;;;;;;;;;5020295;28;20076;-74
2022/12/13 08:58:57;;;;;;;88.05;35.88;;;;;;;;;;5030244;28;20471;-74
2022/12/13 09:01:23;;;;;;;83.32;35.22;;;;;;;;;;5034500;28;20475;-74
2022/12/13 09:03:49;;;;;;;99.68;37.60;;;;;;;;;;5022938;28;20022;-74
2022/12/13 09:06:16;;;;;;;86.45;33.50;;;;;;;;;;5014327;28;20029;-75
2022/12/13 09:08:42;;;;;;;87.82;34.35;;;;;;;;;;5014720;28;20108;-74
2022/12/13 09:11:09;;;;;;;85.22;34.15;;;;;;;;;;5018008;28;20025;-74
2022/12/13 09:13:39;;;;;;;103.55;38.67;;;;;;;;;;5020348;28;20463;-74
2022/12/13 09:16:07;;;;;;;87.03;35.75;;;;;;;;;;5025245;28;20056;-74
2022/12/13 09:18:33;;;;;;;75.88;32.33;;;;;;;;;;5026025;28;20022;-74
2022/12/13 09:20:59;;;;;;;83.18;32.67;;;;;;;;;;5021440;28;20522;-73
2022/12/13 09:23:24;;;;;;;82.20;32.63;;;;;;;;;;5013574;28;20029;-73
2022/12/13 09:25:54;;;;;;;76.70;31.55;;;;;;;;;;5013341;28;20359;-73
2022/12/13 09:28:20;;;;;;;73.93;31.83;;;;;;;;;;5013961;28;20026;-73
2022/12/13 09:30:46;;;;;;;73.72;31.15;;;;;;;;;;5017023;28;20026;-73
2022/12/13 09:33:12;;;;;;;68.93;30.45;;;;;;;;;;5020225;28;20446;-74
2022/12/13 09:35:38;;;;;;;70.80;31.10;;;;;;;;;;5019554;28;20026;-74
2022/12/13 09:38:04;;;;;;;75.68;31.50;;;;;;;;;;5014043;28;20029;-74
2022/12/13 09:40:30;;;;;;;66.50;29.15;;;;;;;;;;5014370;28;20376;-74
2022/12/13 09:42:57;;;;;;;75.13;30.55;;;;;;;;;;5014028;28;20386;-75
2022/12/13 09:45:24;;;;;;;75.20;29.85;;;;;;;;;;5014107;28;20026;-73
2022/12/13 09:47:51;;;;;;;67.88;28.67;;;;;;;;;;5025385;28;20514;-75
2022/12/13 09:50:23;;;;;;;65.93;29.08;;;;;;;;;;5014137;28;20072;-77
2022/12/13 09:52:49;;;;;;;64.05;28.17;;;;;;;;;;5014763;28;20566;-75
2022/12/13 09:55:20;;;;;;;64.18;28.63;;;;;;;;;;5013841;28;20309;-76
2022/12/13 09:57:46;;;;;;;71.53;29.05;;;;;;;;;;5016394;28;20076;-74
2022/12/13 10:00:15;;;;;;;62.83;27.92;;;;;;;;;;5015541;28;20026;-74
2022/12/13 10:02:48;;;;;;;69.80;29.73;;;;;;;;;;5013749;28;20025;-74
2022/12/13 10:05:34;;;;;;;66.57;28.13;;;;;;;;;;5013212;28;20029;-74
2022/12/13 10:08:05;;;;;;;69.72;29.00;;;;;;;;;;5013593;28;20064;-74
2022/12/13 10:10:30;;;;;;;61.00;28.02;;;;;;;;;;5013930;28;20049;-73
2022/12/13 10:13:15;;;;;;;64.95;28.38;;;;;;;;;;5014309;28;20050;-75
2022/12/13 10:15:42;;;;;;;62.08;27.45;;;;;;;;;;5013378;28;20498;-73
2022/12/13 10:18:10;;;;;;;80.72;32.03;;;;;;;;;;5015096;28;20418;-75
2022/12/13 10:20:36;;;;;;;69.95;30.25;;;;;;;;;;5014400;28;20034;-74
2022/12/13 10:23:02;;;;;;;68.80;29.75;;;;;;;;;;5016705;28;20045;-75
2022/12/13 10:25:43;;;;;;;69.22;29.85;;;;;;;;;;5017117;28;20026;-78
2022/12/13 10:28:09;;;;;;;68.35;29.35;;;;;;;;;;5025943;28;20034;-75
2022/12/13 10:30:42;;;;;;;64.60;26.60;;;;;;;;;;5033722;28;20032;-74
2022/12/13 10:33:18;;;;;;;55.63;25.42;;;;;;;;;;5021227;28;20118;-78
2022/12/13 10:35:46;;;;;;;60.08;26.75;;;;;;;;;;5015851;28;20029;-74
2022/12/13 10:38:15;;;;;;;55.03;25.25;;;;;;;;;;5014635;28;20387;-74
2022/12/13 10:40:47;;;;;;;57.03;25.55;;;;;;;;;;5013645;28;20018;-76
2022/12/13 10:43:15;;;;;;;60.45;26.88;;;;;;;;;;5016437;28;20056;-74
2022/12/13 10:45:56;;;;;;;60.50;26.33;;;;;;;;;;5021456;28;20032;-74
2022/12/13 10:48:24;;;;;;;61.42;26.42;;;;;;;;;;5029135;28;20185;-76
2022/12/13 10:50:58;;;;;;;52.40;25.42;;;;;;;;;;5032062;28;20038;-74
2022/12/13 10:53:27;;;;;;;67.40;26.42;;;;;;;;;;5032258;28;20018;-75
2022/12/13 10:55:55;;;;;;;59.53;26.08;;;;;;;;;;5027145;28;20133;-75
2022/12/13 10:58:20;;;;;;;58.30;26.50;;;;;;;;;;5029648;28;20030;-75
2022/12/13 11:00:48;;;;;;;70.22;28.20;;;;;;;;;;5030561;28;20033;-75
2022/12/13 11:03:32;;;;;;;62.97;26.60;;;;;;;;;;5026347;28;20033;-75
2022/12/13 11:06:02;;;;;;;62.28;25.98;;;;;;;;;;5030273;28;20103;-75
2022/12/13 11:08:29;;;;;;;58.58;26.13;;;;;;;;;;5034194;28;20036;-74
2022/12/13 11:10:58;;;;;;;58.08;26.25;;;;;;;;;;5040614;28;20060;-76
2022/12/13 11:13:31;;;;;;;58.85;26.48;;;;;;;;;;5040232;28;20064;-73
2022/12/13 11:15:57;;;;;;;57.97;26.58;;;;;;;;;;5039342;28;20041;-74
2022/12/13 11:18:24;;;;;;;55.45;25.92;;;;;;;;;;5037214;28;20041;-76
2022/12/13 11:20:54;;;;;;;58.67;26.25;;;;;;;;;;5036724;28;20045;-73
2022/12/13 11:23:27;;;;;;;58.30;24.88;;;;;;;;;;5040212;28;20033;-74
2022/12/13 11:25:57;;;;;;;57.03;25.95;;;;;;;;;;5037619;28;20037;-74
2022/12/13 11:28:26;;;;;;;59.97;26.65;;;;;;;;;;5033507;28;20045;-75
2022/12/13 11:31:00;;;;;;;58.97;26.00;;;;;;;;;;5033100;28;20028;-75
2022/12/13 11:33:36;;;;;;;53.08;24.95;;;;;;;;;;5033262;28;20041;-75
2022/12/13 11:36:12;;;;;;;56.53;24.88;;;;;;;;;;5022677;28;20030;-74
2022/12/13 11:38:54;;;;;;;60.95;25.90;;;;;;;;;;5016323;28;20538;-75
2022/12/13 11:41:26;;;;;;;58.97;26.02;;;;;;;;;;5016815;28;20030;-74
2022/12/13 11:43:57;;;;;;;56.17;24.70;;;;;;;;;;5018500;28;20121;-74
2022/12/13 11:46:43;;;;;;;82.35;28.40;;;;;;;;;;5017092;28;20068;-74
2022/12/13 11:49:11;;;;;;;63.53;26.92;;;;;;;;;;5016117;28;20053;-75
2022/12/13 11:51:42;;;;;;;56.80;26.02;;;;;;;;;;5015056;28;20037;-73
2022/12/13 11:54:14;;;;;;;52.17;23.88;;;;;;;;;;5015546;28;20514;-74
2022/12/13 11:56:42;;;;;;;54.65;25.10;;;;;;;;;;5013588;28;20025;-74
2022/12/13 11:59:14;;;;;;;66.50;27.45;;;;;;;;;;5015341;28;20018;-74
2022/12/13 12:01:42;;;;;;;59.30;26.10;;;;;;;;;;5015164;28;20733;-73
2022/12/13 12:04:18;;;;;;;75.28;30.35;;;;;;;;;;5015497;28;20371;-74
2022/12/13 12:06:50;;;;;;;58.95;26.30;;;;;;;;;;5014868;28;20038;-73
2022/12/13 12:09:18;;;;;;;62.45;26.02;;;;;;;;;;5015320;28;20026;-73
2022/12/13 12:11:58;;;;;;;58.60;24.95;;;;;;;;;;5015413;28;20041;-73
2022/12/13 12:14:27;;;;;;;60.90;26.40;;;;;;;;;;5014998;28;20042;-74
2022/12/13 12:16:55;;;;;;;53.75;24.05;;;;;;;;;;5015374;28;20026;-75
2022/12/13 12:19:35;;;;;;;52.83;24.40;;;;;;;;;;5015238;28;20506;-73
2022/12/13 12:22:11;;;;;;;54.38;24.17;;;;;;;;;;5016985;28;20049;-74
2022/12/13 12:24:46;;;;;;;57.40;26.20;;;;;;;;;;5013907;28;20026;-74
2022/12/13 12:27:11;;;;;;;58.80;25.27;;;;;;;;;;5014838;28;20403;-73
2022/12/13 12:29:37;;;;;;;58.28;26.00;;;;;;;;;;5015380;28;20121;-75
2022/12/13 12:32:10;;;;;;;56.25;26.10;;;;;;;;;;5015406;28;20040;-73
2022/12/13 12:34:43;;;;;;;62.85;27.20;;;;;;;;;;5013712;28;20037;-75
2022/12/13 12:37:18;;;;;;;77.53;35.13;;;;;;;;;;5014850;28;20033;-72
2022/12/13 12:39:44;;;;;;;75.97;33.47;;;;;;;;;;5015163;28;20483;-73
2022/12/13 12:42:20;;;;;;;57.40;27.65;;;;;;;;;;5015033;28;20042;-73
2022/12/13 12:44:49;;;;;;;68.00;28.15;;;;;;;;;;5014742;28;20057;-73
2022/12/13 12:47:21;;;;;;;69.07;30.45;;;;;;;;;;5014066;28;20022;-72
2022/12/13 12:50:09;;;;;;;65.72;28.55;;;;;;;;;;5014656;28;20046;-73
2022/12/13 12:52:48;;;;;;;66.45;28.63;;;;;;;;;;5016753;28;20022;-71
2022/12/13 12:55:29;;;;;;;61.85;29.20;;;;;;;;;;5015612;28;20022;-73
2022/12/13 12:58:09;;;;;;;63.53;29.20;;;;;;;;;;5018764;28;20030;-75
2022/12/13 13:00:41;;;;;;;69.53;30.83;;;;;;;;;;5025169;28;20026;-77
2022/12/13 13:03:31;;;;;;;64.90;29.25;;;;;;;;;;5030825;28;20033;-73
2022/12/13 13:06:03;;;;;;;67.85;29.02;;;;;;;;;;5033662;28;20030;-74
2022/12/13 13:08:48;;;;;;;72.28;31.77;;;;;;;;;;5015593;28;20032;-74
2022/12/13 13:11:13;;;;;;;;;;;;;;;;;;5015920;28;20030;-74
2022/12/13 13:13:45;;;;;;;77.85;33.20;;;;;;;;;;5017201;28;19905;-73
2022/12/13 13:16:26;;;;;;;75.85;34.15;;;;;;;;;;5014897;28;20112;-73
2022/12/13 13:19:02;;;;;;;80.32;34.85;;;;;;;;;;5014536;28;20018;-74
2022/12/13 13:21:40;;;;;;;83.45;36.13;;;;;;;;;;5012921;28;20105;-74
2022/12/13 13:24:12;;;;;;;83.45;36.30;;;;;;;;;;5014273;28;20033;-73
2022/12/13 13:26:41;;;;;;;79.80;36.22;;;;;;;;;;5013963;28;20022;-74
2022/12/13 13:29:27;;;;;;;76.85;35.25;;;;;;;;;;5013220;28;20545;-78
2022/12/13 13:31:57;;;;;;;86.05;36.30;;;;;;;;;;5006749;28;20041;-75
2022/12/13 13:34:25;;;;;;;79.70;36.47;;;;;;;;;;5014030;28;20044;-75
2022/12/13 13:36:51;;;;;;;82.63;37.50;;;;;;;;;;5013761;28;20050;-75
2022/12/13 13:39:32;;;;;;;80.90;37.05;;;;;;;;;;5014278;28;20026;-74
2022/12/13 13:42:08;;;;;;;79.38;38.00;;;;;;;;;;5013683;28;20076;-74
2022/12/13 13:44:55;;;;;;;82.55;37.55;;;;;;;;;;5013906;28;20439;-75
2022/12/13 13:47:21;;;;;;;95.97;42.25;;;;;;;;;;5018704;28;20029;-74
2022/12/13 13:50:06;;;;;;;89.35;39.30;;;;;;;;;;5017237;28;20026;-74
2022/12/13 13:52:44;;;;;;;85.95;38.85;;;;;;;;;;5023070;28;20026;-74
2022/12/13 13:55:16;;;;;;;82.68;38.17;;;;;;;;;;5013574;28;20402;-74
2022/12/13 13:57:52;;;;;;;88.78;39.30;;;;;;;;;;5013506;28;20471;-74
2022/12/13 14:00:42;;;;;;;85.53;38.90;;;;;;;;;;5014433;28;20359;-75
2022/12/13 14:03:08;;;;;;;92.93;38.50;;;;;;;;;;5014984;28;20037;-74
2022/12/13 14:05:43;;;;;;;90.28;40.25;;;;;;;;;;5018795;28;20030;-74
2022/12/13 14:08:09;;;;;;;89.15;40.95;;;;;;;;;;5014164;28;20026;-75
2022/12/13 14:10:58;;;;;;;88.30;41.10;;;;;;;;;;5013557;28;20109;-76
2022/12/13 14:13:42;;;;;;;96.50;44.58;;;;;;;;;;5012832;28;20109;-78
2022/12/13 14:16:20;;;;;;;97.65;40.58;;;;;;;;;;5013629;28;20474;-78
2022/12/13 14:19:05;;;;;;;92.82;40.80;;;;;;;;;;5014066;28;20045;-77
2022/12/13 14:21:37;;;;;;;94.13;41.05;;;;;;;;;;5013000;28;20037;-77
2022/12/13 14:24:24;;;;;;;112.65;46.45;;;;;;;;;;5014356;28;20034;-79